createdAt,value
2018-07-14T00:00:05.056Z,74.62
2018-07-14T00:00:43.211Z,75.20
2018-07-14T00:01:18.628Z,75.00
2018-07-14T00:01:54.007Z,74.43
2018-07-14T00:02:29.126Z,74.81
2018-07-14T00:03:04.388Z,74.90
2018-07-14T00:03:39.731Z,74.71
2018-07-14T00:04:15.120Z,74.90
2018-07-14T00:04:53.166Z,74.23
2018-07-14T00:05:28.422Z,75.00
2018-07-14T00:06:03.887Z,74.81
2018-07-14T00:06:39.717Z,73.85
2018-07-14T00:07:15.155Z,74.23
2018-07-14T00:07:50.655Z,73.85
2018-07-14T00:08:26.023Z,74.43
2018-07-14T00:09:01.494Z,74.43
2018-07-14T00:09:37.366Z,73.56
2018-07-14T00:10:12.784Z,73.66
2018-07-14T00:10:48.319Z,74.13
2018-07-14T00:11:23.907Z,73.18
2018-07-14T00:11:59.638Z,73.08
2018-07-14T00:12:35.098Z,73.85
2018-07-14T00:13:10.602Z,74.13
2018-07-14T00:13:45.919Z,73.66
2018-07-14T00:14:21.135Z,73.85
2018-07-14T00:14:56.397Z,73.37
2018-07-14T00:15:31.698Z,73.66
2018-07-14T00:16:07.259Z,73.08
2018-07-14T00:16:43.376Z,73.08
2018-07-14T00:17:18.715Z,72.60
2018-07-14T00:17:54.053Z,72.79
2018-07-14T00:18:29.375Z,72.79
2018-07-14T00:19:04.972Z,72.99
2018-07-14T00:19:41.764Z,73.72
2018-07-14T00:20:17.083Z,73.27
2018-07-14T00:20:52.289Z,72.99
2018-07-14T00:21:27.438Z,72.60
2018-07-14T00:22:02.760Z,73.14
2018-07-14T00:22:38.383Z,72.89
2018-07-14T00:23:13.701Z,72.95
2018-07-14T00:23:49.246Z,72.56
2018-07-14T00:24:24.886Z,73.24
2018-07-14T00:25:00.238Z,73.24
2018-07-14T00:25:35.635Z,72.08
2018-07-14T00:26:11.157Z,72.47
2018-07-14T00:26:46.415Z,71.98
2018-07-14T00:27:22.036Z,71.98
2018-07-14T00:27:57.587Z,72.66
2018-07-14T00:28:32.721Z,72.18
2018-07-14T00:29:07.863Z,72.18
2018-07-14T00:29:43.207Z,72.66
2018-07-14T00:30:18.558Z,72.08
2018-07-14T00:30:57.194Z,72.47
2018-07-14T00:31:32.734Z,72.56
2018-07-14T00:32:08.069Z,72.47
2018-07-14T00:32:44.754Z,71.89
2018-07-14T00:33:19.895Z,71.61
2018-07-14T00:33:55.715Z,71.80
2018-07-14T00:34:31.260Z,71.22
2018-07-14T00:35:09.275Z,71.41
2018-07-14T00:35:44.907Z,72.08
2018-07-14T00:36:20.112Z,71.89
2018-07-14T00:36:55.266Z,72.56
2018-07-14T00:37:30.259Z,72.18
2018-07-14T00:38:05.694Z,71.80
2018-07-14T00:38:41.239Z,71.98
2018-07-14T00:39:16.580Z,71.98
2018-07-14T00:39:51.950Z,71.61
2018-07-14T00:40:27.361Z,71.41
2018-07-14T00:41:02.704Z,70.17
2018-07-14T00:41:38.321Z,70.26
2018-07-14T00:42:13.571Z,70.84
2018-07-14T00:42:48.868Z,69.97
2018-07-14T00:43:24.702Z,69.49
2018-07-14T00:43:59.812Z,70.07
2018-07-14T00:44:35.091Z,70.17
2018-07-14T00:45:10.508Z,70.70
2018-07-14T00:45:48.550Z,70.17
2018-07-14T00:46:24.320Z,69.93
2018-07-14T00:46:59.629Z,70.26
2018-07-14T00:47:35.090Z,70.74
2018-07-14T00:48:10.591Z,70.32
2018-07-14T00:48:46.075Z,70.17
2018-07-14T00:49:21.316Z,70.13
2018-07-14T00:49:56.702Z,70.51
2018-07-14T00:50:31.912Z,70.23
2018-07-14T00:51:07.218Z,70.45
2018-07-14T00:51:42.629Z,70.23
2018-07-14T00:52:17.652Z,70.61
2018-07-14T00:52:54.074Z,70.42
2018-07-14T00:53:29.309Z,69.49
2018-07-14T00:54:04.659Z,70.90
2018-07-14T00:54:40.306Z,69.84
2018-07-14T00:55:15.850Z,69.93
2018-07-14T00:55:51.059Z,70.03
2018-07-14T00:56:26.675Z,70.03
2018-07-14T00:57:02.296Z,70.42
2018-07-14T00:57:38.462Z,70.32
2018-07-14T00:58:13.800Z,70.51
2018-07-14T00:58:49.171Z,69.93
2018-07-14T00:59:24.673Z,69.46
2018-07-14T01:00:00.122Z,69.93
2018-07-14T01:00:35.777Z,70.42
2018-07-14T01:01:11.107Z,69.93
2018-07-14T01:01:46.566Z,70.13
2018-07-14T01:02:22.106Z,69.56
2018-07-14T01:02:57.435Z,69.56
2018-07-14T01:03:32.655Z,69.26
2018-07-14T01:04:07.795Z,69.26
2018-07-14T01:04:43.239Z,69.26
2018-07-14T01:05:18.963Z,69.17
2018-07-14T01:05:55.772Z,68.59
2018-07-14T01:06:31.514Z,69.07
2018-07-14T01:07:06.956Z,68.79
2018-07-14T01:07:42.367Z,69.74
2018-07-14T01:08:17.596Z,68.98
2018-07-14T01:08:53.097Z,68.79
2018-07-14T01:09:28.590Z,68.50
2018-07-14T01:10:03.887Z,69.26
2018-07-14T01:10:40.036Z,68.59
2018-07-14T01:11:15.260Z,68.79
2018-07-14T01:11:50.622Z,68.69
2018-07-14T01:12:25.972Z,68.79
2018-07-14T01:13:01.229Z,68.12
2018-07-14T01:13:36.689Z,68.21
2018-07-14T01:14:12.184Z,68.79
2018-07-14T01:14:47.333Z,68.79
2018-07-14T01:15:22.675Z,69.46
2018-07-14T01:15:58.201Z,68.69
2018-07-14T01:16:33.313Z,68.40
2018-07-14T01:17:08.777Z,68.30
2018-07-14T01:17:44.619Z,68.88
2018-07-14T01:18:20.115Z,68.69
2018-07-14T01:18:55.420Z,68.30
2018-07-14T01:19:30.971Z,69.07
2018-07-14T01:20:06.515Z,68.40
2018-07-14T01:20:42.362Z,69.07
2018-07-14T01:21:17.999Z,68.88
2018-07-14T01:21:53.501Z,68.69
2018-07-14T01:22:29.020Z,69.56
2018-07-14T01:23:04.375Z,68.46
2018-07-14T01:23:40.927Z,69.52
2018-07-14T01:24:16.351Z,68.59
2018-07-14T01:24:54.022Z,68.95
2018-07-14T01:25:29.226Z,67.89
2018-07-14T01:26:04.551Z,68.98
2018-07-14T01:26:40.406Z,68.88
2018-07-14T01:27:15.722Z,68.46
2018-07-14T01:27:51.273Z,68.75
2018-07-14T01:28:26.483Z,67.79
2018-07-14T01:29:02.127Z,67.99
2018-07-14T01:29:37.487Z,67.50
2018-07-14T01:30:13.117Z,68.85
2018-07-14T01:30:50.626Z,68.46
2018-07-14T01:31:25.784Z,68.37
2018-07-14T01:32:01.199Z,68.18
2018-07-14T01:32:36.834Z,67.79
2018-07-14T01:33:11.979Z,67.69
2018-07-14T01:33:47.289Z,67.12
2018-07-14T01:34:22.729Z,67.41
2018-07-14T01:34:57.985Z,67.22
2018-07-14T01:35:33.731Z,66.45
2018-07-14T01:36:09.226Z,66.35
2018-07-14T01:36:44.848Z,66.35
2018-07-14T01:37:19.943Z,66.55
2018-07-14T01:37:55.264Z,66.55
2018-07-14T01:38:30.789Z,66.55
2018-07-14T01:39:06.224Z,66.45
2018-07-14T01:39:41.907Z,66.55
2018-07-14T01:40:17.231Z,66.26
2018-07-14T01:40:52.563Z,65.88
2018-07-14T01:41:27.782Z,66.93
2018-07-14T01:42:03.233Z,67.22
2018-07-14T01:42:39.729Z,66.16
2018-07-14T01:43:15.165Z,66.06
2018-07-14T01:43:50.667Z,65.68
2018-07-14T01:44:25.987Z,66.64
2018-07-14T01:45:01.429Z,65.30
2018-07-14T01:45:36.869Z,65.68
2018-07-14T01:46:12.288Z,66.26
2018-07-14T01:46:47.795Z,66.26
2018-07-14T01:47:23.328Z,65.68
2018-07-14T01:47:58.650Z,65.88
2018-07-14T01:48:34.088Z,66.93
2018-07-14T01:49:09.419Z,66.64
2018-07-14T01:49:44.692Z,65.68
2018-07-14T01:50:20.295Z,66.06
2018-07-14T01:50:55.536Z,65.59
2018-07-14T01:51:30.746Z,66.16
2018-07-14T01:52:06.167Z,65.88
2018-07-14T01:52:42.082Z,65.78
2018-07-14T01:53:17.411Z,65.20
2018-07-14T01:53:53.529Z,65.30
2018-07-14T01:54:28.962Z,65.11
2018-07-14T01:55:04.428Z,64.92
2018-07-14T01:55:40.734Z,64.34
2018-07-14T01:56:16.198Z,64.53
2018-07-14T01:56:51.684Z,64.72
2018-07-14T01:57:26.907Z,64.92
2018-07-14T01:58:02.241Z,65.11
2018-07-14T01:58:37.817Z,65.01
2018-07-14T01:59:12.954Z,64.92
2018-07-14T01:59:48.281Z,64.34
2018-07-14T02:00:23.806Z,64.34
2018-07-14T02:00:59.207Z,64.82
2018-07-14T02:01:34.347Z,65.30
2018-07-14T02:02:09.657Z,64.92
2018-07-14T02:02:46.891Z,65.30
2018-07-14T02:03:22.100Z,65.01
2018-07-14T02:03:57.627Z,64.25
2018-07-14T02:04:33.164Z,64.63
2018-07-14T02:05:08.693Z,65.08
2018-07-14T02:05:44.033Z,64.89
2018-07-14T02:06:19.249Z,64.89
2018-07-14T02:06:55.180Z,65.08
2018-07-14T02:07:30.599Z,64.89
2018-07-14T02:08:05.847Z,65.26
2018-07-14T02:08:40.984Z,64.79
2018-07-14T02:09:16.421Z,64.40
2018-07-14T02:09:51.669Z,64.69
2018-07-14T02:10:26.919Z,64.59
2018-07-14T02:11:02.343Z,65.20
2018-07-14T02:11:37.886Z,64.98
2018-07-14T02:12:13.187Z,65.01
2018-07-14T02:12:48.522Z,65.08
2018-07-14T02:13:23.734Z,64.69
2018-07-14T02:13:59.067Z,65.36
2018-07-14T02:14:34.519Z,64.50
2018-07-14T02:15:09.806Z,64.50
2018-07-14T02:15:44.824Z,64.12
2018-07-14T02:16:20.345Z,63.54
2018-07-14T02:16:55.569Z,64.12
2018-07-14T02:17:30.958Z,63.16
2018-07-14T02:18:06.186Z,64.02
2018-07-14T02:18:41.492Z,63.45
2018-07-14T02:19:16.907Z,63.83
2018-07-14T02:19:52.389Z,64.69
2018-07-14T02:20:27.593Z,63.83
2018-07-14T02:21:02.965Z,63.45
2018-07-14T02:21:39.775Z,64.31
2018-07-14T02:22:15.015Z,62.96
2018-07-14T02:22:50.415Z,63.45
2018-07-14T02:23:25.652Z,64.02
2018-07-14T02:24:01.099Z,63.54
2018-07-14T02:24:36.369Z,63.45
2018-07-14T02:25:11.965Z,64.12
2018-07-14T02:25:47.231Z,64.22
2018-07-14T02:26:22.650Z,64.69
2018-07-14T02:26:58.184Z,64.22
2018-07-14T02:27:33.643Z,64.69
2018-07-14T02:28:09.240Z,64.59
2018-07-14T02:28:44.981Z,64.31
2018-07-14T02:29:20.272Z,64.22
2018-07-14T02:29:55.760Z,63.64
2018-07-14T02:30:31.097Z,63.64
2018-07-14T02:31:07.169Z,63.64
2018-07-14T02:31:42.382Z,63.45
2018-07-14T02:32:17.816Z,63.26
2018-07-14T02:32:54.655Z,63.64
2018-07-14T02:33:30.090Z,62.96
2018-07-14T02:34:05.614Z,62.49
2018-07-14T02:34:41.030Z,62.01
2018-07-14T02:35:16.256Z,62.59
2018-07-14T02:35:52.783Z,63.64
2018-07-14T02:36:28.312Z,63.83
2018-07-14T02:37:03.717Z,62.96
2018-07-14T02:37:41.087Z,63.06
2018-07-14T02:38:16.493Z,63.06
2018-07-14T02:38:51.736Z,63.35
2018-07-14T02:39:27.112Z,64.31
2018-07-14T02:40:02.451Z,63.35
2018-07-14T02:40:38.480Z,62.77
2018-07-14T02:41:13.772Z,62.49
2018-07-14T02:41:49.313Z,62.30
2018-07-14T02:42:24.753Z,61.60
2018-07-14T02:43:00.474Z,61.40
2018-07-14T02:43:35.995Z,61.11
2018-07-14T02:44:11.242Z,61.79
2018-07-14T02:44:46.571Z,61.88
2018-07-14T02:45:21.805Z,61.31
2018-07-14T02:45:58.640Z,61.79
2018-07-14T02:46:33.836Z,61.69
2018-07-14T02:47:09.084Z,61.31
2018-07-14T02:47:45.183Z,61.88
2018-07-14T02:48:20.340Z,61.50
2018-07-14T02:48:55.880Z,61.88
2018-07-14T02:49:31.237Z,61.88
2018-07-14T02:50:06.462Z,61.60
2018-07-14T02:50:41.987Z,61.31
2018-07-14T02:51:17.280Z,61.02
2018-07-14T02:51:53.120Z,61.31
2018-07-14T02:52:28.479Z,60.73
2018-07-14T02:53:04.173Z,61.02
2018-07-14T02:53:40.000Z,61.60
2018-07-14T02:54:15.397Z,61.60
2018-07-14T02:54:51.792Z,61.21
2018-07-14T02:55:27.321Z,61.69
2018-07-14T02:56:02.671Z,61.60
2018-07-14T02:56:38.382Z,61.31
2018-07-14T02:57:13.867Z,61.88
2018-07-14T02:57:49.516Z,61.79
2018-07-14T02:58:25.267Z,61.31
2018-07-14T02:59:00.591Z,61.31
2018-07-14T02:59:36.015Z,61.21
2018-07-14T03:00:11.478Z,61.50
2018-07-14T03:00:47.474Z,61.31
2018-07-14T03:01:23.033Z,60.35
2018-07-14T03:01:58.540Z,60.16
2018-07-14T03:02:33.751Z,61.02
2018-07-14T03:03:09.347Z,61.31
2018-07-14T03:03:44.692Z,61.60
2018-07-14T03:04:20.102Z,61.11
2018-07-14T03:04:55.858Z,60.83
2018-07-14T03:05:30.966Z,60.35
2018-07-14T03:06:06.320Z,60.93
2018-07-14T03:06:41.329Z,60.06
2018-07-14T03:07:16.866Z,61.02
2018-07-14T03:07:52.271Z,60.73
2018-07-14T03:08:27.731Z,59.77
2018-07-14T03:09:03.237Z,61.31
2018-07-14T03:09:38.598Z,60.93
2018-07-14T03:10:13.928Z,60.54
2018-07-14T03:10:49.356Z,62.74
2018-07-14T03:11:24.666Z,62.17
2018-07-14T03:12:00.310Z,61.60
2018-07-14T03:12:35.309Z,61.21
2018-07-14T03:13:10.359Z,61.31
2018-07-14T03:13:45.873Z,62.17
2018-07-14T03:14:21.415Z,62.26
2018-07-14T03:14:56.790Z,62.17
2018-07-14T03:15:32.123Z,62.17
2018-07-14T03:16:07.559Z,62.17
2018-07-14T03:16:43.179Z,62.46
2018-07-14T03:17:18.697Z,62.07
2018-07-14T03:17:54.117Z,61.88
2018-07-14T03:18:29.547Z,61.69
2018-07-14T03:19:04.923Z,61.98
2018-07-14T03:19:40.193Z,61.98
2018-07-14T03:20:15.602Z,61.21
2018-07-14T03:20:51.321Z,60.83
2018-07-14T03:21:26.582Z,61.79
2018-07-14T03:22:01.782Z,61.31
2018-07-14T03:22:37.213Z,61.21
2018-07-14T03:23:12.621Z,61.69
2018-07-14T03:23:47.871Z,61.50
2018-07-14T03:24:23.202Z,60.44
2018-07-14T03:25:00.107Z,60.83
2018-07-14T03:25:35.314Z,60.64
2018-07-14T03:26:10.737Z,61.11
2018-07-14T03:26:46.458Z,61.31
2018-07-14T03:27:22.666Z,61.11
2018-07-14T03:27:57.686Z,61.21
2018-07-14T03:28:33.379Z,61.11
2018-07-14T03:29:08.913Z,61.31
2018-07-14T03:29:44.661Z,61.21
2018-07-14T03:30:20.162Z,61.60
2018-07-14T03:30:55.585Z,61.21
2018-07-14T03:31:31.087Z,60.93
2018-07-14T03:32:06.420Z,60.93
2018-07-14T03:32:42.539Z,60.54
2018-07-14T03:33:17.914Z,61.02
2018-07-14T03:33:53.192Z,60.93
2018-07-14T03:34:28.577Z,60.93
2018-07-14T03:35:03.703Z,60.35
2018-07-14T03:35:41.343Z,60.83
2018-07-14T03:36:16.768Z,60.64
2018-07-14T03:36:54.595Z,62.07
2018-07-14T03:37:29.826Z,61.79
2018-07-14T03:38:05.961Z,60.73
2018-07-14T03:38:41.489Z,61.11
2018-07-14T03:39:16.915Z,60.16
2018-07-14T03:39:52.461Z,60.25
2018-07-14T03:40:27.787Z,60.54
2018-07-14T03:41:03.321Z,60.54
2018-07-14T03:41:38.455Z,60.83
2018-07-14T03:42:15.167Z,61.31
2018-07-14T03:42:50.503Z,61.21
2018-07-14T03:43:26.097Z,61.40
2018-07-14T03:44:03.344Z,61.31
2018-07-14T03:44:39.070Z,61.02
2018-07-14T03:45:14.622Z,61.31
2018-07-14T03:45:49.932Z,61.21
2018-07-14T03:46:25.452Z,60.54
2018-07-14T03:47:02.762Z,61.31
2018-07-14T03:47:38.310Z,61.11
2018-07-14T03:48:15.104Z,60.73
2018-07-14T03:48:50.550Z,60.25
2018-07-14T03:49:25.766Z,60.06
2018-07-14T03:50:01.335Z,60.16
2018-07-14T03:50:36.682Z,59.87
2018-07-14T03:51:12.418Z,59.77
2018-07-14T03:51:47.533Z,59.87
2018-07-14T03:52:23.417Z,60.54
2018-07-14T03:52:58.662Z,60.83
2018-07-14T03:53:34.245Z,61.11
2018-07-14T03:54:09.444Z,61.11
2018-07-14T03:54:44.843Z,61.02
2018-07-14T03:55:20.267Z,61.31
2018-07-14T03:55:57.294Z,61.11
2018-07-14T03:56:32.795Z,61.21
2018-07-14T03:57:08.031Z,61.21
2018-07-14T03:57:43.330Z,62.07
2018-07-14T03:58:18.765Z,61.98
2018-07-14T03:58:54.374Z,61.60
2018-07-14T03:59:29.538Z,61.60
2018-07-14T04:00:04.953Z,60.93
2018-07-14T04:00:40.915Z,61.60
2018-07-14T04:01:16.267Z,61.60
2018-07-14T04:01:52.320Z,61.40
2018-07-14T04:02:27.859Z,60.73
2018-07-14T04:03:03.288Z,61.11
2018-07-14T04:03:39.406Z,61.31
2018-07-14T04:04:16.051Z,61.69
2018-07-14T04:04:51.279Z,61.98
2018-07-14T04:05:26.715Z,62.46
2018-07-14T04:06:02.133Z,61.88
2018-07-14T04:06:37.360Z,62.74
2018-07-14T04:07:12.653Z,62.17
2018-07-14T04:07:49.894Z,61.11
2018-07-14T04:08:25.203Z,61.21
2018-07-14T04:09:00.424Z,62.26
2018-07-14T04:09:35.749Z,62.07
2018-07-14T04:10:14.415Z,61.98
2018-07-14T04:10:52.829Z,62.26
2018-07-14T04:11:28.070Z,62.55
2018-07-14T04:12:03.391Z,63.42
2018-07-14T04:12:40.028Z,63.22
2018-07-14T04:13:15.339Z,63.13
2018-07-14T04:13:50.996Z,63.70
2018-07-14T04:14:26.202Z,63.80
2018-07-14T04:15:02.898Z,63.60
2018-07-14T04:15:39.922Z,63.32
2018-07-14T04:16:15.268Z,63.32
2018-07-14T04:16:58.969Z,63.42
2018-07-14T04:17:34.288Z,63.22
2018-07-14T04:18:09.482Z,62.17
2018-07-14T04:18:47.956Z,63.03
2018-07-14T04:19:23.162Z,62.93
2018-07-14T04:20:01.816Z,63.70
2018-07-14T04:20:38.029Z,62.74
2018-07-14T04:21:13.207Z,62.84
2018-07-14T04:21:49.225Z,63.03
2018-07-14T04:22:24.364Z,63.13
2018-07-14T04:23:00.180Z,63.22
2018-07-14T04:23:35.629Z,62.93
2018-07-14T04:24:11.056Z,62.74
2018-07-14T04:24:46.556Z,62.07
2018-07-14T04:25:21.759Z,62.84
2018-07-14T04:25:56.982Z,62.17
2018-07-14T04:26:32.497Z,61.98
2018-07-14T04:27:07.725Z,61.98
2018-07-14T04:27:43.831Z,61.98
2018-07-14T04:28:19.035Z,62.26
2018-07-14T04:28:54.365Z,61.98
2018-07-14T04:29:29.918Z,62.55
2018-07-14T04:30:05.275Z,62.17
2018-07-14T04:30:42.005Z,62.07
2018-07-14T04:31:17.385Z,61.40
2018-07-14T04:31:52.820Z,61.79
2018-07-14T04:32:28.208Z,62.26
2018-07-14T04:33:03.693Z,62.84
2018-07-14T04:33:41.206Z,63.22
2018-07-14T04:34:16.740Z,63.60
2018-07-14T04:34:53.475Z,63.80
2018-07-14T04:35:29.017Z,63.80
2018-07-14T04:36:04.451Z,63.26
2018-07-14T04:36:40.760Z,62.68
2018-07-14T04:37:16.164Z,62.87
2018-07-14T04:37:51.487Z,63.45
2018-07-14T04:38:26.697Z,63.64
2018-07-14T04:39:01.924Z,63.89
2018-07-14T04:39:38.272Z,63.54
2018-07-14T04:40:15.086Z,64.02
2018-07-14T04:40:53.388Z,63.60
2018-07-14T04:41:28.632Z,63.35
2018-07-14T04:42:03.835Z,64.02
2018-07-14T04:42:40.584Z,64.02
2018-07-14T04:43:15.907Z,64.12
2018-07-14T04:43:54.447Z,64.28
2018-07-14T04:44:29.993Z,63.99
2018-07-14T04:45:05.214Z,64.31
2018-07-14T04:45:40.407Z,63.83
2018-07-14T04:46:15.736Z,63.64
2018-07-14T04:46:50.958Z,63.83
2018-07-14T04:47:26.514Z,64.12
2018-07-14T04:48:02.935Z,64.50
2018-07-14T04:48:38.366Z,64.28
2018-07-14T04:49:13.557Z,65.05
2018-07-14T04:49:49.232Z,65.05
2018-07-14T04:50:24.651Z,64.56
2018-07-14T04:51:03.223Z,64.40
2018-07-14T04:51:38.511Z,64.95
2018-07-14T04:52:13.982Z,65.23
2018-07-14T04:52:49.178Z,65.23
2018-07-14T04:53:24.515Z,65.14
2018-07-14T04:53:59.849Z,65.05
2018-07-14T04:54:35.040Z,64.98
2018-07-14T04:55:10.408Z,65.17
2018-07-14T04:55:50.840Z,65.17
2018-07-14T04:56:26.141Z,64.40
2018-07-14T04:57:01.574Z,65.08
2018-07-14T04:57:37.171Z,65.26
2018-07-14T04:58:12.405Z,65.71
2018-07-14T04:58:48.138Z,65.84
2018-07-14T04:59:23.600Z,65.84
2018-07-14T04:59:58.926Z,65.17
2018-07-14T05:00:34.261Z,64.95
2018-07-14T05:01:09.974Z,64.22
2018-07-14T05:01:48.409Z,64.12
2018-07-14T05:02:23.723Z,64.22
2018-07-14T05:03:02.852Z,64.69
2018-07-14T05:03:38.295Z,64.69
2018-07-14T05:04:13.809Z,65.65
2018-07-14T05:04:49.371Z,65.84
2018-07-14T05:05:24.722Z,64.89
2018-07-14T05:05:59.921Z,64.98
2018-07-14T05:06:35.304Z,66.32
2018-07-14T05:07:10.515Z,65.55
2018-07-14T05:07:46.718Z,67.38
2018-07-14T05:08:21.891Z,66.13
2018-07-14T05:08:57.514Z,65.94
2018-07-14T05:09:32.790Z,66.51
2018-07-14T05:10:07.893Z,66.42
2018-07-14T05:10:44.521Z,66.71
2018-07-14T05:11:19.847Z,66.51
2018-07-14T05:11:55.089Z,66.99
2018-07-14T05:12:30.716Z,67.66
2018-07-14T05:13:06.472Z,66.51
2018-07-14T05:13:43.779Z,67.76
2018-07-14T05:14:19.220Z,67.18
2018-07-14T05:14:54.651Z,66.99
2018-07-14T05:15:29.971Z,66.22
2018-07-14T05:16:05.288Z,66.89
2018-07-14T05:16:41.218Z,66.51
2018-07-14T05:17:16.559Z,67.18
2018-07-14T05:17:51.908Z,67.38
2018-07-14T05:18:27.818Z,66.32
2018-07-14T05:19:03.034Z,68.05
2018-07-14T05:19:38.577Z,67.47
2018-07-14T05:20:13.897Z,67.57
2018-07-14T05:20:51.295Z,67.47
2018-07-14T05:21:26.761Z,67.60
2018-07-14T05:22:01.955Z,68.08
2018-07-14T05:22:37.162Z,68.37
2018-07-14T05:23:12.759Z,68.66
2018-07-14T05:23:48.418Z,68.66
2018-07-14T05:24:23.847Z,69.23
2018-07-14T05:24:59.223Z,68.56
2018-07-14T05:25:34.630Z,67.69
2018-07-14T05:26:10.156Z,67.99
2018-07-14T05:26:46.779Z,68.56
2018-07-14T05:27:22.311Z,68.95
2018-07-14T05:27:58.017Z,69.13
2018-07-14T05:28:33.298Z,68.66
2018-07-14T05:29:08.645Z,68.95
2018-07-14T05:29:44.812Z,68.56
2018-07-14T05:30:20.128Z,68.85
2018-07-14T05:30:55.465Z,70.00
2018-07-14T05:31:30.776Z,69.23
2018-07-14T05:32:05.905Z,68.56
2018-07-14T05:32:41.011Z,68.98
2018-07-14T05:33:16.265Z,68.75
2018-07-14T05:33:51.871Z,70.03
2018-07-14T05:34:27.111Z,71.37
2018-07-14T05:35:02.548Z,71.95
2018-07-14T05:35:37.886Z,72.49
2018-07-14T05:36:13.276Z,72.05
2018-07-14T05:36:48.805Z,71.76
2018-07-14T05:37:24.300Z,71.86
2018-07-14T05:37:59.626Z,71.66
2018-07-14T05:38:35.048Z,71.47
2018-07-14T05:39:10.587Z,71.19
2018-07-14T05:39:46.140Z,71.47
2018-07-14T05:40:21.386Z,71.19
2018-07-14T05:40:56.686Z,70.99
2018-07-14T05:41:32.121Z,71.66
2018-07-14T05:42:07.428Z,71.09
2018-07-14T05:42:43.753Z,71.76
2018-07-14T05:43:19.269Z,71.95
2018-07-14T05:43:54.631Z,71.37
2018-07-14T05:44:29.823Z,71.76
2018-07-14T05:45:04.785Z,71.57
2018-07-14T05:45:40.301Z,71.22
2018-07-14T05:46:15.730Z,71.70
2018-07-14T05:46:51.135Z,72.28
2018-07-14T05:47:26.276Z,73.24
2018-07-14T05:48:01.694Z,72.47
2018-07-14T05:48:37.141Z,72.28
2018-07-14T05:49:12.753Z,72.66
2018-07-14T05:49:48.312Z,73.04
2018-07-14T05:50:23.437Z,73.04
2018-07-14T05:50:58.766Z,72.95
2018-07-14T05:51:34.085Z,73.24
2018-07-14T05:52:09.511Z,73.91
2018-07-14T05:52:46.036Z,74.29
2018-07-14T05:53:21.400Z,74.19
2018-07-14T05:53:56.691Z,73.04
2018-07-14T05:54:32.155Z,74.01
2018-07-14T05:55:07.678Z,73.18
2018-07-14T05:55:43.238Z,73.46
2018-07-14T05:56:18.555Z,73.85
2018-07-14T05:56:53.868Z,73.85
2018-07-14T05:57:29.250Z,73.46
2018-07-14T05:58:04.361Z,73.27
2018-07-14T05:58:42.786Z,75.10
2018-07-14T05:59:18.230Z,74.13
2018-07-14T05:59:53.676Z,75.67
2018-07-14T06:00:29.011Z,75.38
2018-07-14T06:01:04.720Z,75.20
2018-07-14T06:01:39.977Z,73.85
2018-07-14T06:02:15.301Z,75.29
2018-07-14T06:02:51.028Z,75.38
2018-07-14T06:03:26.350Z,75.20
2018-07-14T06:04:01.976Z,75.77
2018-07-14T06:04:37.508Z,75.42
2018-07-14T06:05:12.792Z,75.90
2018-07-14T06:05:48.516Z,75.90
2018-07-14T06:06:23.933Z,76.39
2018-07-14T06:06:59.201Z,76.77
2018-07-14T06:07:34.461Z,76.57
2018-07-14T06:08:09.862Z,76.57
2018-07-14T06:08:46.383Z,77.25
2018-07-14T06:09:21.519Z,76.71
2018-07-14T06:09:56.949Z,77.00
2018-07-14T06:10:32.501Z,76.52
2018-07-14T06:11:07.822Z,77.67
2018-07-14T06:11:43.054Z,76.81
2018-07-14T06:12:18.165Z,77.00
2018-07-14T06:12:53.994Z,77.19
2018-07-14T06:13:29.415Z,77.23
2018-07-14T06:14:04.786Z,77.61
2018-07-14T06:14:39.999Z,76.94
2018-07-14T06:15:15.645Z,77.81
2018-07-14T06:15:51.793Z,77.51
2018-07-14T06:16:27.066Z,78.23
2018-07-14T06:17:02.581Z,78.23
2018-07-14T06:17:38.313Z,78.03
2018-07-14T06:18:13.684Z,78.81
2018-07-14T06:18:50.497Z,78.23
2018-07-14T06:19:25.535Z,78.03
2018-07-14T06:20:00.873Z,78.13
2018-07-14T06:20:36.456Z,78.52
2018-07-14T06:21:11.813Z,77.94
2018-07-14T06:21:47.833Z,79.10
2018-07-14T06:22:23.278Z,78.33
2018-07-14T06:22:58.667Z,77.65
2018-07-14T06:23:34.402Z,78.42
2018-07-14T06:24:10.027Z,78.81
2018-07-14T06:24:45.396Z,78.13
2018-07-14T06:25:20.584Z,78.33
2018-07-14T06:25:55.905Z,78.42
2018-07-14T06:26:30.999Z,78.03
2018-07-14T06:27:06.561Z,78.42
2018-07-14T06:27:42.748Z,78.08
2018-07-14T06:28:17.974Z,78.75
2018-07-14T06:28:53.481Z,78.46
2018-07-14T06:29:28.921Z,78.46
2018-07-14T06:30:03.923Z,78.65
2018-07-14T06:30:42.056Z,78.40
2018-07-14T06:31:17.403Z,78.31
2018-07-14T06:31:52.703Z,78.98
2018-07-14T06:32:27.952Z,78.73
2018-07-14T06:33:03.366Z,78.21
2018-07-14T06:33:38.800Z,78.63
2018-07-14T06:34:14.955Z,78.83
2018-07-14T06:34:52.269Z,78.83
2018-07-14T06:35:27.793Z,78.54
2018-07-14T06:36:03.193Z,78.38
2018-07-14T06:36:38.921Z,78.96
2018-07-14T06:37:14.137Z,77.90
2018-07-14T06:37:49.681Z,78.00
2018-07-14T06:38:25.275Z,78.58
2018-07-14T06:39:00.496Z,78.52
2018-07-14T06:39:36.148Z,79.19
2018-07-14T06:40:11.678Z,78.42
2018-07-14T06:40:47.113Z,77.65
2018-07-14T06:41:22.827Z,77.84
2018-07-14T06:41:58.343Z,77.94
2018-07-14T06:42:33.776Z,78.23
2018-07-14T06:43:09.189Z,78.46
2018-07-14T06:43:45.524Z,78.56
2018-07-14T06:44:20.921Z,78.27
2018-07-14T06:44:56.474Z,78.75
2018-07-14T06:45:31.673Z,78.75
2018-07-14T06:46:07.029Z,77.78
2018-07-14T06:46:42.503Z,77.88
2018-07-14T06:47:18.198Z,78.46
2018-07-14T06:47:53.428Z,79.04
2018-07-14T06:48:28.702Z,77.92
2018-07-14T06:49:04.202Z,77.63
2018-07-14T06:49:39.667Z,78.50
2018-07-14T06:50:14.753Z,77.92
2018-07-14T06:50:50.086Z,78.02
2018-07-14T06:51:25.403Z,77.63
2018-07-14T06:52:00.753Z,78.31
2018-07-14T06:52:36.053Z,77.63
2018-07-14T06:53:11.191Z,78.54
2018-07-14T06:53:46.512Z,77.67
2018-07-14T06:54:22.325Z,76.22
2018-07-14T06:54:58.589Z,77.38
2018-07-14T06:55:34.240Z,77.67
2018-07-14T06:56:09.728Z,77.22
2018-07-14T06:56:45.287Z,76.06
2018-07-14T06:57:20.908Z,76.93
2018-07-14T06:57:57.338Z,75.78
2018-07-14T06:58:32.646Z,75.62
2018-07-14T06:59:07.897Z,74.85
2018-07-14T06:59:44.639Z,74.75
2018-07-14T07:00:19.878Z,74.40
2018-07-14T07:00:59.328Z,75.65
2018-07-14T07:01:34.855Z,76.53
2018-07-14T07:02:10.587Z,75.85
2018-07-14T07:02:45.809Z,73.72
2018-07-14T07:03:21.073Z,75.85
2018-07-14T07:03:56.340Z,75.65
2018-07-14T07:04:31.973Z,75.46
2018-07-14T07:05:07.599Z,74.69
2018-07-14T07:05:43.308Z,74.11
2018-07-14T07:06:19.749Z,74.59
2018-07-14T07:06:55.180Z,73.91
2018-07-14T07:07:31.114Z,74.69
2018-07-14T07:08:10.210Z,75.17
2018-07-14T07:08:45.560Z,74.59
2018-07-14T07:09:21.058Z,74.21
2018-07-14T07:09:56.326Z,73.72
2018-07-14T07:10:31.682Z,74.43
2018-07-14T07:11:07.332Z,73.75
2018-07-14T07:11:46.735Z,72.79
2018-07-14T07:12:23.684Z,72.69
2018-07-14T07:13:00.703Z,73.75
2018-07-14T07:13:36.374Z,73.18
2018-07-14T07:14:11.442Z,72.79
2018-07-14T07:14:46.891Z,72.30
2018-07-14T07:15:24.679Z,74.08
2018-07-14T07:16:00.123Z,74.57
2018-07-14T07:16:35.425Z,72.24
2018-07-14T07:17:10.889Z,73.11
2018-07-14T07:17:47.589Z,72.09
2018-07-14T07:18:22.921Z,73.05
2018-07-14T07:18:58.326Z,72.47
2018-07-14T07:19:35.905Z,71.70
2018-07-14T07:20:11.416Z,73.05
2018-07-14T07:20:46.835Z,74.35
2018-07-14T07:21:22.114Z,73.67
2018-07-14T07:21:57.973Z,72.51
2018-07-14T07:22:33.276Z,71.44
2018-07-14T07:23:08.525Z,72.12
2018-07-14T07:23:43.932Z,71.34
2018-07-14T07:24:19.473Z,72.28
2018-07-14T07:24:55.392Z,73.05
2018-07-14T07:25:30.750Z,73.09
2018-07-14T07:26:05.855Z,71.64
2018-07-14T07:26:43.089Z,72.22
2018-07-14T07:27:18.476Z,72.80
2018-07-14T07:27:54.029Z,73.28
2018-07-14T07:28:29.223Z,71.86
2018-07-14T07:29:04.656Z,72.45
2018-07-14T07:29:39.881Z,70.61
2018-07-14T07:30:15.447Z,71.22
2018-07-14T07:30:54.645Z,70.64
2018-07-14T07:31:29.830Z,70.29
2018-07-14T07:32:05.144Z,70.54
2018-07-14T07:32:41.388Z,68.35
2018-07-14T07:33:16.787Z,69.12
2018-07-14T07:33:52.344Z,68.93
2018-07-14T07:34:29.742Z,68.96
2018-07-14T07:35:05.019Z,67.60
2018-07-14T07:35:40.746Z,69.06
2018-07-14T07:36:15.903Z,69.48
2018-07-14T07:36:51.289Z,66.08
2018-07-14T07:37:29.227Z,64.04
2018-07-14T07:38:04.815Z,65.33
2018-07-14T07:38:42.495Z,63.97